createdAt,value
2018-10-02T00:00:40.660Z,85.39
2018-10-02T00:03:09.496Z,85.22
2018-10-02T00:05:38.176Z,85.88
2018-10-02T00:08:07.199Z,86.24
2018-10-02T00:10:36.628Z,86.77
2018-10-02T00:14:09.941Z,86.20
2018-10-02T00:16:39.429Z,86.30
2018-10-02T00:19:08.400Z,87.27
2018-10-02T00:21:37.652Z,86.69
2018-10-02T00:24:06.853Z,86.95
2018-10-02T00:26:35.984Z,87.12
2018-10-02T00:29:05.369Z,87.18
2018-10-02T00:31:34.471Z,87.39
2018-10-02T00:34:03.900Z,88.41
2018-10-02T00:36:33.119Z,89.15
2018-10-02T00:39:02.199Z,89.22
2018-10-02T00:41:31.095Z,89.75
2018-10-02T00:43:59.881Z,90.54
2018-10-02T00:46:28.996Z,91.17
2018-10-02T00:48:59.206Z,90.89
2018-10-02T00:51:28.120Z,90.67
2018-10-02T00:53:56.699Z,91.28
2018-10-02T00:56:25.860Z,91.15
2018-10-02T00:58:54.457Z,90.84
2018-10-02T01:01:23.215Z,90.83
2018-10-02T01:03:51.885Z,90.89
2018-10-02T01:06:20.750Z,90.50
2018-10-02T01:08:49.555Z,90.79
2018-10-02T01:11:19.180Z,91.11
2018-10-02T01:13:48.300Z,91.31
2018-10-02T01:16:17.548Z,90.67
2018-10-02T01:18:46.370Z,91.44
2018-10-02T01:21:15.156Z,92.10
2018-10-02T01:23:44.379Z,92.33
2018-10-02T01:26:13.423Z,92.17
2018-10-02T01:28:42.709Z,92.05
2018-10-02T01:31:12.058Z,92.58
2018-10-02T01:33:41.379Z,92.78
2018-10-02T01:36:10.605Z,92.76
2018-10-02T01:38:39.639Z,93.16
2018-10-02T01:41:08.471Z,93.19
2018-10-02T01:43:37.144Z,93.62
2018-10-02T01:46:06.645Z,94.58
2018-10-02T01:48:35.591Z,95.31
2018-10-02T01:51:04.800Z,94.75
2018-10-02T01:53:33.754Z,95.25
2018-10-02T01:56:02.416Z,94.33
2018-10-02T01:58:31.465Z,94.04
2018-10-02T02:01:00.932Z,94.34
2018-10-02T02:03:30.535Z,93.63
2018-10-02T02:05:59.932Z,92.65
2018-10-02T02:08:28.720Z,92.68
2018-10-02T02:10:57.577Z,93.14
2018-10-02T02:13:26.515Z,93.37
2018-10-02T02:15:56.069Z,93.37
2018-10-02T02:18:25.204Z,93.50
2018-10-02T02:20:54.556Z,93.99
2018-10-02T02:23:23.424Z,93.75
2018-10-02T02:25:52.202Z,94.60
2018-10-02T02:28:21.100Z,94.34
2018-10-02T02:30:50.191Z,94.41
2018-10-02T02:33:18.821Z,95.03
2018-10-02T02:35:47.725Z,95.21
2018-10-02T02:38:17.072Z,94.91
2018-10-02T02:40:45.825Z,95.05
2018-10-02T02:43:15.000Z,95.25
2018-10-02T02:45:43.769Z,95.49
2018-10-02T02:48:17.592Z,94.73
2018-10-02T02:50:57.216Z,95.22
2018-10-02T02:53:26.126Z,94.84
2018-10-02T02:55:54.782Z,95.16
2018-10-02T02:58:23.459Z,94.74
2018-10-02T03:00:52.429Z,94.35
2018-10-02T03:03:21.274Z,95.14
2018-10-02T03:05:50.166Z,94.76
2018-10-02T03:08:18.766Z,94.91
2018-10-02T03:10:47.611Z,95.05
2018-10-02T03:13:16.900Z,94.93
2018-10-02T03:15:46.040Z,95.06
2018-10-02T03:18:15.361Z,95.33
2018-10-02T03:20:44.820Z,95.09
2018-10-02T03:23:13.853Z,95.38
2018-10-02T03:25:43.135Z,95.16
2018-10-02T03:28:11.860Z,95.07
2018-10-02T03:30:41.425Z,94.79
2018-10-02T03:33:10.342Z,94.83
2018-10-02T03:35:40.176Z,95.13
2018-10-02T03:38:09.637Z,95.17
2018-10-02T03:40:38.500Z,95.69
2018-10-02T03:43:07.620Z,95.73
2018-10-02T03:45:36.447Z,95.74
2018-10-02T03:48:06.133Z,95.45
2018-10-02T03:50:34.899Z,95.90
2018-10-02T03:53:04.445Z,95.81
2018-10-02T03:55:33.490Z,96.17
2018-10-02T03:58:02.946Z,96.68
2018-10-02T04:00:31.800Z,96.48
2018-10-02T04:03:00.514Z,96.26
2018-10-02T04:05:29.262Z,96.57
2018-10-02T04:07:57.857Z,96.00
2018-10-02T04:10:27.037Z,96.09
2018-10-02T04:12:55.982Z,96.40
2018-10-02T04:15:24.687Z,96.36
2018-10-02T04:17:53.464Z,96.94
2018-10-02T04:20:22.515Z,96.37
2018-10-02T04:22:51.281Z,97.14
2018-10-02T04:25:19.988Z,96.46
2018-10-02T04:27:48.779Z,97.05
2018-10-02T04:30:17.635Z,97.03
2018-10-02T04:32:46.382Z,96.92
2018-10-02T04:35:15.082Z,96.83
2018-10-02T04:37:43.985Z,96.60
2018-10-02T04:40:12.848Z,96.55
2018-10-02T04:42:42.077Z,96.31
2018-10-02T04:45:10.932Z,97.31
2018-10-02T04:47:40.432Z,97.04
2018-10-02T04:50:09.993Z,97.05
2018-10-02T04:52:38.832Z,97.30
2018-10-02T04:55:08.808Z,97.41
2018-10-02T04:57:38.012Z,97.79
2018-10-02T05:00:07.643Z,97.99
2018-10-02T05:02:37.031Z,97.61
2018-10-02T05:05:07.168Z,98.07
2018-10-02T05:07:37.307Z,98.28
2018-10-02T05:10:06.076Z,97.71
2018-10-02T05:12:34.712Z,97.17
2018-10-02T05:15:04.026Z,97.11
2018-10-02T05:17:33.130Z,97.53
2018-10-02T05:20:02.264Z,97.35
2018-10-02T05:22:31.477Z,97.42
2018-10-02T05:25:00.308Z,97.64
2018-10-02T05:27:29.069Z,97.58
2018-10-02T05:29:58.333Z,97.21
2018-10-02T05:32:27.407Z,97.20
2018-10-02T05:34:56.705Z,96.98
2018-10-02T05:37:25.841Z,97.04
2018-10-02T05:39:55.298Z,97.21
2018-10-02T05:42:24.506Z,98.26
2018-10-02T05:44:53.292Z,98.23
2018-10-02T05:47:21.992Z,98.11
2018-10-02T05:49:51.198Z,98.33
2018-10-02T05:52:20.249Z,97.97
2018-10-02T05:54:49.258Z,98.21
2018-10-02T05:57:18.350Z,98.12
2018-10-02T05:59:47.933Z,97.64
2018-10-02T06:02:17.158Z,97.94
2018-10-02T06:04:46.612Z,97.58
2018-10-02T06:07:16.635Z,97.36
2018-10-02T06:09:45.372Z,97.72
2018-10-02T06:12:14.057Z,97.23
2018-10-02T06:14:42.950Z,96.79
2018-10-02T06:17:12.553Z,97.18
2018-10-02T06:19:41.745Z,97.20
2018-10-02T06:22:10.637Z,96.88
2018-10-02T06:24:39.496Z,96.99
2018-10-02T06:27:08.404Z,97.26
2018-10-02T06:29:37.336Z,97.24
2018-10-02T06:32:07.015Z,97.59
2018-10-02T06:34:36.138Z,98.01
2018-10-02T06:37:05.446Z,98.06
2018-10-02T06:39:34.572Z,98.38
2018-10-02T06:42:03.504Z,98.17
2018-10-02T06:44:32.998Z,97.25
2018-10-02T06:47:02.209Z,96.01
2018-10-02T06:49:31.552Z,95.50
2018-10-02T06:52:00.451Z,94.59
2018-10-02T06:54:30.034Z,93.13
2018-10-02T06:56:59.190Z,93.15
2018-10-02T06:59:28.436Z,93.15
2018-10-02T07:01:57.541Z,93.25
2018-10-02T07:04:26.736Z,92.86
2018-10-02T07:06:55.750Z,92.42
2018-10-02T07:09:24.490Z,92.10
2018-10-02T07:11:53.108Z,91.65
2018-10-02T07:14:22.719Z,91.64
2018-10-02T07:16:52.034Z,91.75
2018-10-02T07:19:21.237Z,90.48
2018-10-02T07:21:51.633Z,90.83
2018-10-02T07:24:20.484Z,89.40
2018-10-02T07:26:50.530Z,86.96
2018-10-02T07:29:19.907Z,85.19
2018-10-02T07:31:49.508Z,84.35
2018-10-02T07:34:18.559Z,83.70
2018-10-02T07:36:47.758Z,82.96
2018-10-02T07:39:16.988Z,82.59
2018-10-02T07:41:46.092Z,83.42
2018-10-02T07:44:14.927Z,82.86
2018-10-02T07:46:43.641Z,81.90
2018-10-02T07:49:12.666Z,81.66
2018-10-02T07:51:42.142Z,81.50
2018-10-02T07:54:11.273Z,80.79
2018-10-02T07:56:40.660Z,79.52
2018-10-02T07:59:09.417Z,78.68
2018-10-02T08:01:39.041Z,78.47
2018-10-02T08:04:08.117Z,77.77
2018-10-02T08:06:37.389Z,75.30
2018-10-02T08:09:08.829Z,76.32
2018-10-02T08:11:37.721Z,73.97
2018-10-02T08:14:06.737Z,70.93
2018-10-02T08:16:36.339Z,67.67
2018-10-02T08:19:06.399Z,65.45
2018-10-02T08:21:35.380Z,67.04
2018-10-02T08:24:04.871Z,70.21
2018-10-02T08:26:34.035Z,70.08
2018-10-02T08:29:03.243Z,69.42
2018-10-02T08:31:32.108Z,67.93
2018-10-02T08:34:01.687Z,66.25
2018-10-02T08:36:31.077Z,65.74
2018-10-02T08:39:00.204Z,62.79
2018-10-02T08:41:29.053Z,58.93
2018-10-02T08:43:57.700Z,55.66
2018-10-02T08:46:26.830Z,51.79
2018-10-02T08:48:55.969Z,47.25
2018-10-02T08:51:26.152Z,45.10
2018-10-02T08:53:55.113Z,42.60
2018-10-02T08:56:23.793Z,39.03
2018-10-02T08:58:53.030Z,38.12
2018-10-02T09:01:22.186Z,41.78
2018-10-02T09:03:51.339Z,42.24
2018-10-02T09:06:20.406Z,44.59
2018-10-02T09:08:50.081Z,45.94
2018-10-02T09:11:19.217Z,46.87
2018-10-02T09:13:47.974Z,47.93
2018-10-02T09:16:16.768Z,48.84
2018-10-02T09:18:45.703Z,50.12
2018-10-02T09:21:14.924Z,49.97
2018-10-02T09:23:44.134Z,51.06
2018-10-02T09:26:14.358Z,51.27
2018-10-02T09:28:43.569Z,51.24
2018-10-02T09:31:18.118Z,50.13
2018-10-02T09:33:52.070Z,48.26
2018-10-02T09:36:25.985Z,47.22
2018-10-02T09:39:00.172Z,47.82
2018-10-02T09:41:34.254Z,44.21
2018-10-02T09:44:04.113Z,41.84
2018-10-02T09:46:33.745Z,39.46
2018-10-02T09:49:02.417Z,36.55
2018-10-02T09:51:32.055Z,31.79
2018-10-02T09:54:01.210Z,32.07
2018-10-02T09:56:35.314Z,31.98
2018-10-02T09:59:04.779Z,33.69
2018-10-02T10:01:38.759Z,37.61
2018-10-02T10:04:07.458Z,39.16
2018-10-02T10:06:36.112Z,39.71
2018-10-02T10:09:06.265Z,41.95
2018-10-02T10:11:36.719Z,42.66
2018-10-02T10:14:05.599Z,44.48
2018-10-02T10:16:34.337Z,45.54
2018-10-02T10:19:03.253Z,46.35
2018-10-02T10:21:32.470Z,46.78
2018-10-02T10:24:01.693Z,47.42
2018-10-02T10:26:30.424Z,46.53
2018-10-02T10:28:59.212Z,45.14
2018-10-02T10:31:28.444Z,43.90
2018-10-02T10:33:57.893Z,42.97
2018-10-02T10:36:26.748Z,42.77
2018-10-02T10:38:56.232Z,41.29
2018-10-02T10:41:25.197Z,41.37
2018-10-02T10:43:54.749Z,39.22
2018-10-02T10:46:23.873Z,40.03
2018-10-02T10:48:52.830Z,40.53
2018-10-02T10:51:21.984Z,41.19
2018-10-02T10:53:51.274Z,40.97
2018-10-02T10:56:20.212Z,42.66
2018-10-02T10:58:48.989Z,44.19
2018-10-02T11:01:17.917Z,44.09
2018-10-02T11:03:46.821Z,43.50
2018-10-02T11:06:16.462Z,43.78
2018-10-02T11:08:45.684Z,43.56
2018-10-02T11:11:14.874Z,42.52
2018-10-02T11:13:44.030Z,42.40
2018-10-02T11:16:13.316Z,41.68
2018-10-02T11:18:42.092Z,41.51
2018-10-02T11:21:10.829Z,40.59
2018-10-02T11:23:39.644Z,42.24
2018-10-02T11:26:09.229Z,41.59
2018-10-02T11:28:38.661Z,42.53
2018-10-02T11:31:07.900Z,42.88
2018-10-02T11:33:36.889Z,45.43
2018-10-02T11:36:06.427Z,45.20
2018-10-02T11:38:35.489Z,45.70
2018-10-02T11:41:04.662Z,46.18
2018-10-02T11:43:33.877Z,45.61
2018-10-02T11:46:03.154Z,45.99
2018-10-02T11:48:32.163Z,46.32
2018-10-02T11:51:01.615Z,46.09
2018-10-02T11:53:30.745Z,46.21
2018-10-02T11:55:59.504Z,45.65
2018-10-02T11:58:28.913Z,44.81
2018-10-02T12:00:57.557Z,45.07
2018-10-02T12:03:26.770Z,44.46
2018-10-02T12:05:55.458Z,44.24
2018-10-02T12:08:24.238Z,44.58
2018-10-02T12:10:53.191Z,43.39
2018-10-02T12:13:22.008Z,43.16
2018-10-02T12:15:50.760Z,42.44
2018-10-02T12:18:19.550Z,41.51
2018-10-02T12:20:49.497Z,42.94
2018-10-02T12:23:18.428Z,42.39
2018-10-02T12:25:47.299Z,43.08
2018-10-02T12:28:16.074Z,43.44
2018-10-02T12:30:45.016Z,43.20
2018-10-02T12:33:14.301Z,43.57
2018-10-02T12:35:44.029Z,42.63
2018-10-02T12:38:12.782Z,43.08
2018-10-02T12:40:41.963Z,43.16
2018-10-02T12:43:11.163Z,44.22
2018-10-02T12:45:39.805Z,42.88
2018-10-02T12:48:08.709Z,43.05
2018-10-02T12:50:37.564Z,42.32
2018-10-02T12:53:06.463Z,41.76
2018-10-02T12:55:35.347Z,42.39
2018-10-02T12:58:04.626Z,42.59
2018-10-02T13:00:33.480Z,43.04
2018-10-02T13:03:03.127Z,42.43
2018-10-02T13:05:31.859Z,43.44
2018-10-02T13:08:01.246Z,44.37
2018-10-02T13:10:30.111Z,44.96
2018-10-02T13:12:58.948Z,45.75
2018-10-02T13:15:28.144Z,46.37
2018-10-02T13:17:57.338Z,47.33
2018-10-02T13:20:26.708Z,47.83
2018-10-02T13:22:55.810Z,47.90
2018-10-02T13:25:25.287Z,47.45
2018-10-02T13:27:54.363Z,48.58
2018-10-02T13:30:23.235Z,48.65
2018-10-02T13:32:52.089Z,49.53
2018-10-02T13:35:21.117Z,49.16
2018-10-02T13:37:51.225Z,49.46
2018-10-02T13:40:20.068Z,49.67
2018-10-02T13:42:48.789Z,50.11
2018-10-02T13:45:17.539Z,50.21
2018-10-02T13:47:47.164Z,50.57
2018-10-02T13:50:16.454Z,50.77
2018-10-02T13:52:45.280Z,50.78
2018-10-02T13:55:14.913Z,49.51
2018-10-02T13:57:44.001Z,50.16
2018-10-02T14:00:12.875Z,50.62
2018-10-02T14:02:42.595Z,50.62
2018-10-02T14:05:11.666Z,51.22
2018-10-02T14:07:40.510Z,50.71
2018-10-02T14:10:10.306Z,51.51
2018-10-02T14:12:39.264Z,51.63
2018-10-02T14:15:08.496Z,51.18
2018-10-02T14:17:37.533Z,51.65
2018-10-02T14:20:06.596Z,52.31
2018-10-02T14:22:36.213Z,52.68
2018-10-02T14:25:05.336Z,53.40
2018-10-02T14:27:34.899Z,54.20
2018-10-02T14:30:04.456Z,56.32
2018-10-02T14:32:34.037Z,58.39
2018-10-02T14:35:03.331Z,60.27
2018-10-02T14:37:32.517Z,62.44
2018-10-02T14:40:01.746Z,63.56
2018-10-02T14:42:31.331Z,64.03
2018-10-02T14:45:00.160Z,64.36
2018-10-02T14:47:28.964Z,64.59
2018-10-02T14:49:57.789Z,64.76
2018-10-02T14:52:26.785Z,64.72
2018-10-02T14:54:56.083Z,65.23
2018-10-02T14:57:25.099Z,64.31
2018-10-02T14:59:53.804Z,64.36
2018-10-02T15:02:22.792Z,63.74
2018-10-02T15:04:52.946Z,64.05
2018-10-02T15:07:22.153Z,63.94
2018-10-02T15:09:52.736Z,63.15
2018-10-02T15:12:21.659Z,62.90
2018-10-02T15:14:50.560Z,62.54
2018-10-02T15:17:19.285Z,60.90
2018-10-02T15:19:48.298Z,60.34
2018-10-02T15:22:17.222Z,60.61
2018-10-02T15:24:45.867Z,60.78
2018-10-02T15:27:15.917Z,59.99
2018-10-02T15:29:44.815Z,60.26
2018-10-02T15:32:14.515Z,59.71
2018-10-02T15:34:43.653Z,59.20
2018-10-02T15:37:13.835Z,58.94
2018-10-02T15:39:43.087Z,59.08
2018-10-02T15:42:12.054Z,59.34
2018-10-02T15:44:41.455Z,59.80
2018-10-02T15:47:11.665Z,59.19
2018-10-02T15:49:40.570Z,59.39
2018-10-02T15:52:10.169Z,59.31
2018-10-02T15:54:39.357Z,59.61
2018-10-02T15:57:08.657Z,58.91
2018-10-02T15:59:38.431Z,59.72
2018-10-02T16:02:07.154Z,59.99
2018-10-02T16:04:36.380Z,60.37
2018-10-02T16:07:05.096Z,60.53
2018-10-02T16:09:33.923Z,61.23
2018-10-02T16:12:02.945Z,60.74
2018-10-02T16:14:31.971Z,60.92
2018-10-02T16:17:01.481Z,60.92
2018-10-02T16:19:30.515Z,60.78
2018-10-02T16:22:00.072Z,61.33
2018-10-02T16:24:29.052Z,61.07
2018-10-02T16:26:58.170Z,60.61
2018-10-02T16:29:27.442Z,61.08
2018-10-02T16:31:56.451Z,60.18
2018-10-02T16:34:25.928Z,60.00
2018-10-02T16:36:55.132Z,58.79
2018-10-02T16:39:24.026Z,58.87
2018-10-02T16:41:52.806Z,58.66
2018-10-02T16:44:21.851Z,58.59
2018-10-02T16:46:50.532Z,58.71
2018-10-02T16:49:19.309Z,59.05
2018-10-02T16:51:48.056Z,59.09
2018-10-02T16:54:16.871Z,58.98
2018-10-02T16:56:47.000Z,59.42
2018-10-02T16:59:16.410Z,59.87
2018-10-02T17:01:45.440Z,59.60
2018-10-02T17:04:15.675Z,60.40
2018-10-02T17:06:44.871Z,60.22
2018-10-02T17:09:15.189Z,59.89
2018-10-02T17:11:44.175Z,60.64
2018-10-02T17:14:13.784Z,60.79
2018-10-02T17:16:42.941Z,60.75
2018-10-02T17:19:11.996Z,60.56
2018-10-02T17:21:41.395Z,60.88
2018-10-02T17:24:10.480Z,61.64
2018-10-02T17:26:39.998Z,61.93
2018-10-02T17:29:09.331Z,61.94
2018-10-02T17:31:38.156Z,61.99
2018-10-02T17:34:07.359Z,62.65
2018-10-02T17:36:36.405Z,62.55
2018-10-02T17:39:07.890Z,62.98
2018-10-02T17:41:38.209Z,63.14
2018-10-02T17:44:07.261Z,63.08
2018-10-02T17:46:37.311Z,62.81
2018-10-02T17:49:06.586Z,63.77
2018-10-02T17:51:35.406Z,63.63
2018-10-02T17:54:05.151Z,63.33
2018-10-02T17:56:34.160Z,62.98
2018-10-02T17:59:03.388Z,63.15
2018-10-02T18:01:32.590Z,63.05
2018-10-02T18:04:01.956Z,63.30
2018-10-02T18:06:31.120Z,63.25
2018-10-02T18:08:59.860Z,63.10
2018-10-02T18:11:28.705Z,62.68
2018-10-02T18:13:57.741Z,63.45
2018-10-02T18:16:27.084Z,63.34
2018-10-02T18:18:56.234Z,63.43
2018-10-02T18:21:25.663Z,63.07
2018-10-02T18:23:54.609Z,63.09
2018-10-02T18:26:23.547Z,63.13
2018-10-02T18:28:52.241Z,63.66
2018-10-02T18:31:22.391Z,63.40
2018-10-02T18:33:51.667Z,63.85
2018-10-02T18:36:20.864Z,63.57
2018-10-02T18:38:49.724Z,63.59
2018-10-02T18:41:19.357Z,63.56
2018-10-02T18:43:48.522Z,64.13
2018-10-02T18:46:17.700Z,63.99
2018-10-02T18:48:46.573Z,63.84
2018-10-02T18:51:15.412Z,64.20
2018-10-02T18:53:44.463Z,64.04
2018-10-02T18:56:13.624Z,65.03
2018-10-02T18:58:42.765Z,64.46
2018-10-02T19:01:12.036Z,64.47
2018-10-02T19:03:41.365Z,65.12
2018-10-02T19:06:10.582Z,65.01
2018-10-02T19:08:45.706Z,65.17
2018-10-02T19:11:19.687Z,65.33
2018-10-02T19:13:48.916Z,65.52
2018-10-02T19:16:23.030Z,65.97
2018-10-02T19:18:52.475Z,66.01
2018-10-02T19:21:21.695Z,66.31
2018-10-02T19:23:50.883Z,66.86
2018-10-02T19:26:20.837Z,66.55
2018-10-02T19:28:50.577Z,67.12
2018-10-02T19:31:25.512Z,67.42
2018-10-02T19:33:54.792Z,67.34
2018-10-02T19:36:24.151Z,67.99
2018-10-02T19:39:02.823Z,68.35
2018-10-02T19:41:32.384Z,68.39
2018-10-02T19:44:03.079Z,68.88
2018-10-02T19:46:38.183Z,69.04
2018-10-02T19:49:07.602Z,69.22
2018-10-02T19:51:41.948Z,69.47
2018-10-02T19:54:11.444Z,69.74
2018-10-02T19:56:40.631Z,69.77
2018-10-02T19:59:09.522Z,69.79
2018-10-02T20:01:39.363Z,70.09
2018-10-02T20:04:08.735Z,70.16
2018-10-02T20:06:37.671Z,70.64
2018-10-02T20:09:08.152Z,70.74
2018-10-02T20:11:37.055Z,70.61
2018-10-02T20:14:06.337Z,70.83
2018-10-02T20:16:35.651Z,70.86
2018-10-02T20:19:05.683Z,70.87
2018-10-02T20:21:36.043Z,71.21
2018-10-02T20:24:05.141Z,71.55
2018-10-02T20:26:34.547Z,71.12
2018-10-02T20:29:03.818Z,71.27
2018-10-02T20:31:35.261Z,71.25
2018-10-02T20:34:05.067Z,71.59
2018-10-02T20:36:34.444Z,71.63
2018-10-02T20:39:04.421Z,71.69
2018-10-02T20:41:33.824Z,72.50
2018-10-02T20:44:02.926Z,72.64
2018-10-02T20:46:32.017Z,72.55
2018-10-02T20:49:01.267Z,72.42
2018-10-02T20:51:30.475Z,72.50
2018-10-02T20:53:59.711Z,72.33
2018-10-02T20:56:29.702Z,72.31
2018-10-02T20:58:59.067Z,72.17
2018-10-02T21:01:28.588Z,72.53
2018-10-02T21:03:57.627Z,72.92
2018-10-02T21:06:26.802Z,73.24
2018-10-02T21:08:55.967Z,73.55
2018-10-02T21:11:24.968Z,72.84
2018-10-02T21:13:54.451Z,72.62
2018-10-02T21:16:23.942Z,72.13
2018-10-02T21:18:52.856Z,72.11
2018-10-02T21:21:21.847Z,72.14
2018-10-02T21:23:50.718Z,72.48
2018-10-02T21:26:19.581Z,72.46
2018-10-02T21:28:48.747Z,72.35
2018-10-02T21:31:18.108Z,72.54
2018-10-02T21:33:47.190Z,72.45
2018-10-02T21:36:16.376Z,72.63
2018-10-02T21:38:45.956Z,72.48
2018-10-02T21:41:14.933Z,72.34
2018-10-02T21:43:43.927Z,72.18
2018-10-02T21:46:13.545Z,72.51
2018-10-02T21:48:42.524Z,72.82
2018-10-02T21:51:11.306Z,73.03
2018-10-02T21:53:40.067Z,72.40
2018-10-02T21:56:09.278Z,72.78
2018-10-02T21:58:37.939Z,72.98
2018-10-02T22:01:06.924Z,73.03
2018-10-02T22:03:39.153Z,73.14
2018-10-02T22:06:09.252Z,73.87
2018-10-02T22:08:38.225Z,73.79
2018-10-02T22:11:07.419Z,73.71
2018-10-02T22:13:36.648Z,74.52
2018-10-02T22:16:06.094Z,74.65
2018-10-02T22:18:35.051Z,74.53
2018-10-02T22:21:03.940Z,74.74
2018-10-02T22:23:32.618Z,74.45
2018-10-02T22:26:02.899Z,74.90
2018-10-02T22:28:32.128Z,74.63
2018-10-02T22:31:01.433Z,74.38
2018-10-02T22:33:30.591Z,74.57
2018-10-02T22:35:59.689Z,73.92
2018-10-02T22:38:28.891Z,73.89
2018-10-02T22:40:58.357Z,73.82
2018-10-02T22:43:28.525Z,73.45
2018-10-02T22:45:57.499Z,73.72
2018-10-02T22:48:26.841Z,73.97
2018-10-02T22:50:55.543Z,73.80
2018-10-02T22:53:24.319Z,73.99
2018-10-02T22:55:53.277Z,74.53
2018-10-02T22:58:21.824Z,73.77
2018-10-02T23:00:50.986Z,73.36
2018-10-02T23:03:20.277Z,73.09
2018-10-02T23:05:49.444Z,73.00
2018-10-02T23:08:18.617Z,72.61
2018-10-02T23:10:47.743Z,72.82
2018-10-02T23:13:17.234Z,72.52
2018-10-02T23:15:46.306Z,72.21
2018-10-02T23:18:15.512Z,72.44
2018-10-02T23:20:44.728Z,72.49
2018-10-02T23:23:14.072Z,73.10
2018-10-02T23:25:43.252Z,73.00
2018-10-02T23:28:12.294Z,72.86
2018-10-02T23:30:41.612Z,73.03
2018-10-02T23:33:10.838Z,72.95
2018-10-02T23:35:39.972Z,72.74
2018-10-02T23:38:08.869Z,72.75
2018-10-02T23:40:37.533Z,72.36
2018-10-02T23:43:06.746Z,72.44
2018-10-02T23:45:35.619Z,72.28
2018-10-02T23:48:05.292Z,72.14
2018-10-02T23:50:34.022Z,71.93
2018-10-02T23:53:02.953Z,71.65
2018-10-02T23:55:31.814Z,71.24
2018-10-02T23:58:01.367Z,71.20
